Larkspur — C6BR6 — position and weather

sailwx.info

Track history (hours):
 
Tides and Currents Weather Stations Pressure Air Temp Water Temp Dewpoint Dewpoint Depression Visibility Wind Speed Wind Dir Waves Ship Positions

Larkspur

Operator: Transeuropa Lines

Last reported at 2016-Aug-19 07:32 UTC. Time now 2016-Sep-01 01:57 UTC.
Position N 29°32' W 093°43'.
Warning: this ship's position is 12 days out of date.

Length 225 m; draft 11.8 m.

Type: Tanker. MMSI: 311000344.

Date/timePositionNaut miles runAvg speedWind from/ knotsBaromVisibWave heightAir tempDewpointWater temp
2016-Aug-19 07:32N 29°32' W 093°43'1212.0
2016-Aug-19 06:32N 29°42' W 093°50'8 8.6
2016-Aug-19 05:33N 29°48' W 093°57'8 7.5
2016-Aug-19 04:33N 29°55' W 093°54'5 4.6
2016-Aug-19 03:33N 29°59' W 093°54'5 4.9
2016-Aug-19 02:33N 30°01' W 093°60'0 0.0
2016-Aug-18 04:16N 30°01' W 093°60'0 0.0
2016-Aug-18 02:28N 30°01' W 093°60'0 0.0
2016-Aug-17 08:05N 30°01' W 093°60'0 0.9
2016-Aug-17 07:32N 30°01' W 093°59'0 0.0
2016-Aug-17 06:17N 30°01' W 093°59'0 0.0
2016-Aug-17 05:29N 30°01' W 093°59'0 0.0
2016-Aug-17 03:29N 30°01' W 093°59'0 0.0
2016-Aug-17 00:05N 30°01' W 093°59'0 0.0
2016-Aug-16 23:32N 30°01' W 093°59'0 0.0
2016-Aug-16 22:26N 30°01' W 093°59'0 0.0
2016-Aug-16 20:11N 30°01' W 093°59'0 0.1
2016-Aug-16 19:03N 30°01' W 093°59'1 1.6
2016-Aug-16 18:22N 30°01' W 093°58'5 6.2
2016-Aug-16 17:33N 29°59' W 093°52'6 6.4
2016-Aug-16 16:33N 29°53' W 093°55'7 7.1
2016-Aug-16 15:33N 29°46' W 093°55'8 8.3
2016-Aug-16 14:33N 29°39' W 093°50'1313.2
2016-Aug-16 13:33N 29°29' W 093°40'4 3.7
2016-Aug-16 12:30N 29°25' W 093°42'1 0.7
2016-Aug-16 11:21N 29°26' W 093°42'37 0.9
2016-Aug-14 16:32N 28°52' W 093°26'1413.9
2016-Aug-14 15:30N 28°40' W 093°16'  
2016-Aug-11 15:04N 25°45' W 079°33'610.6
2016-Aug-11 14:33N 25°50' W 079°33'1211.8
2016-Aug-11 13:33N 26°02' W 079°31'1514.5
2016-Aug-11 12:33N 26°13' W 079°20'  
Track history (hours):
 
Tides and Currents Weather Stations Pressure Air Temp Water Temp Dewpoint Dewpoint Depression Visibility Wind Speed Wind Dir Waves Ship Positions

Larkspur

Operator: Transeuropa Lines

Last reported at 2016-Aug-19 07:32 UTC. Time now 2016-Sep-01 01:57 UTC.
Position N 29°32' W 093°43'.
Warning: this ship's position is 12 days out of date.

Length 225 m; draft 11.8 m.

Type: Tanker. MMSI: 311000344.

Date/timePositionNaut miles runAvg speedWind from/ knotsBaromVisibWave heightAir tempDewpointWater temp
2016-Aug-19 07:32N 29°32' W 093°43'1212.0
2016-Aug-19 06:32N 29°42' W 093°50'8 8.6
2016-Aug-19 05:33N 29°48' W 093°57'8 7.5
2016-Aug-19 04:33N 29°55' W 093°54'5 4.6
2016-Aug-19 03:33N 29°59' W 093°54'5 4.9
2016-Aug-19 02:33N 30°01' W 093°60'0 0.0
2016-Aug-18 04:16N 30°01' W 093°60'0 0.0
2016-Aug-18 02:28N 30°01' W 093°60'0 0.0
2016-Aug-17 08:05N 30°01' W 093°60'0 0.9
2016-Aug-17 07:32N 30°01' W 093°59'0 0.0
2016-Aug-17 06:17N 30°01' W 093°59'0 0.0
2016-Aug-17 05:29N 30°01' W 093°59'0 0.0
2016-Aug-17 03:29N 30°01' W 093°59'0 0.0
2016-Aug-17 00:05N 30°01' W 093°59'0 0.0
2016-Aug-16 23:32N 30°01' W 093°59'0 0.0
2016-Aug-16 22:26N 30°01' W 093°59'0 0.0
2016-Aug-16 20:11N 30°01' W 093°59'0 0.1
2016-Aug-16 19:03N 30°01' W 093°59'1 1.6
2016-Aug-16 18:22N 30°01' W 093°58'5 6.2
2016-Aug-16 17:33N 29°59' W 093°52'6 6.4
2016-Aug-16 16:33N 29°53' W 093°55'7 7.1
2016-Aug-16 15:33N 29°46' W 093°55'8 8.3
2016-Aug-16 14:33N 29°39' W 093°50'1313.2
2016-Aug-16 13:33N 29°29' W 093°40'4 3.7
2016-Aug-16 12:30N 29°25' W 093°42'1 0.7
2016-Aug-16 11:21N 29°26' W 093°42'37 0.9
2016-Aug-14 16:32N 28°52' W 093°26'1413.9
2016-Aug-14 15:30N 28°40' W 093°16'  
2016-Aug-11 15:04N 25°45' W 079°33'610.6
2016-Aug-11 14:33N 25°50' W 079°33'1211.8
2016-Aug-11 13:33N 26°02' W 079°31'1514.5
2016-Aug-11 12:33N 26°13' W 079°20'  

Dump ship's entire track history